Saint George, Canada
Current Conditions -  °F | °C
As of 9:00 AM on Saturday 22 Nov 2014 (Local Time) from CYSJ Reporting Station
Few Clouds Few Clouds  
Wind Chill: -16°   Ceiling: Unl
Heat Index: -8°   Visibility: 15mi
Dew Point: -14°   Wind: 15mph
Humidity: 63%   Direction: 290°WNW
Pressure: 30.22"   Gusts: NA
Location:  45.13°N, 66.82°W
Report Text: CYSJ 221300Z 29013KT 15SM FEW020 FEW220 M08/M14 A3022 RMK SC1CI1 SLP242
Loading
Personal Weather Stations






























Interactive Weather Map New forecast layout! Learn more

10-Day Weather Forecast

Advertisements
Track Severe Weather on mobile